sensor_id;sensor_type;location;lat;lon;timestamp;pressure;altitude;pressure_sealevel;temperature;humidity
61010;BME280;46897;55.340;86.082;2023-03-13T06:57:36;102220.50;;;-1.24;69.01
61010;BME280;46897;55.340;86.082;2023-03-13T07:00:08;102263.03;;;-0.97;70.61
61010;BME280;46897;55.340;86.082;2023-03-13T07:02:37;102244.34;;;-0.87;70.29
61010;BME280;46897;55.340;86.082;2023-03-13T07:05:07;102218.25;;;-0.90;71.55
61010;BME280;46897;55.340;86.082;2023-03-13T07:07:37;102237.50;;;-0.60;71.66
61010;BME280;46897;55.340;86.082;2023-03-13T07:10:07;102226.44;;;-0.52;72.29
61010;BME280;46897;55.340;86.082;2023-03-13T07:12:38;102232.41;;;-0.31;72.41
61010;BME280;46897;55.340;86.082;2023-03-13T07:15:16;102231.16;;;-0.15;72.53
61010;BME280;46897;55.340;86.082;2023-03-13T07:17:46;102227.31;;;0.01;72.19
61010;BME280;46897;55.340;86.082;2023-03-13T07:20:15;102183.69;;;-0.08;71.87
61010;BME280;46897;55.340;86.082;2023-03-13T07:22:50;102219.41;;;0.25;71.38
61010;BME280;46897;55.340;86.082;2023-03-13T07:25:19;102199.34;;;0.23;71.53
61010;BME280;46897;55.340;86.082;2023-03-13T07:27:51;102198.78;;;0.33;69.02
61010;BME280;46897;55.340;86.082;2023-03-13T07:30:20;102217.78;;;0.59;69.53
61010;BME280;46897;55.340;86.082;2023-03-13T07:32:50;102214.63;;;0.71;70.85
61010;BME280;46897;55.340;86.082;2023-03-13T07:35:19;102196.13;;;0.62;69.93
61010;BME280;46897;55.340;86.082;2023-03-13T07:37:48;102192.63;;;0.61;70.59
61010;BME280;46897;55.340;86.082;2023-03-13T07:40:17;102203.22;;;0.66;70.13
61010;BME280;46897;55.340;86.082;2023-03-13T07:42:46;102128.19;;;0.24;70.56
61010;BME280;46897;55.340;86.082;2023-03-13T07:45:17;102213.47;;;0.91;70.65
61010;BME280;46897;55.340;86.082;2023-03-13T07:47:47;102174.94;;;0.81;71.14
61010;BME280;46897;55.340;86.082;2023-03-13T07:50:16;102149.94;;;0.88;69.76
61010;BME280;46897;55.340;86.082;2023-03-13T07:52:49;102159.78;;;1.33;70.19
61010;BME280;46897;55.340;86.082;2023-03-13T07:55:18;102201.16;;;1.89;70.24
61010;BME280;46897;55.340;86.082;2023-03-13T07:57:47;102152.69;;;2.02;69.36
61010;BME280;46897;55.340;86.082;2023-03-13T08:00:19;102197.63;;;2.67;67.42
61010;BME280;46897;55.340;86.082;2023-03-13T08:02:49;102205.03;;;2.88;69.21
61010;BME280;46897;55.340;86.082;2023-03-13T08:05:18;102201.84;;;3.05;69.04
61010;BME280;46897;55.340;86.082;2023-03-13T08:07:47;102209.84;;;3.14;65.59
61010;BME280;46897;55.340;86.082;2023-03-13T08:10:17;102207.16;;;3.09;68.19
61010;BME280;46897;55.340;86.082;2023-03-13T08:12:46;102203.72;;;3.12;67.22
61010;BME280;46897;55.340;86.082;2023-03-13T08:15:15;102097.94;;;2.50;66.73
61010;BME280;46897;55.340;86.082;2023-03-13T08:17:49;102213.31;;;3.11;67.04
61010;BME280;46897;55.340;86.082;2023-03-13T08:20:21;102207.88;;;3.01;66.01
61010;BME280;46897;55.340;86.082;2023-03-13T08:22:50;102221.38;;;2.78;65.21
61010;BME280;46897;55.340;86.082;2023-03-13T08:25:19;102232.53;;;2.69;65.54
61010;BME280;46897;55.340;86.082;2023-03-13T08:27:49;102222.84;;;2.64;64.19
61010;BME280;46897;55.340;86.082;2023-03-13T08:30:18;102212.44;;;2.67;65.38
61010;BME280;46897;55.340;86.082;2023-03-13T08:32:49;102216.09;;;2.75;62.91
61010;BME280;46897;55.340;86.082;2023-03-13T08:35:18;102205.63;;;2.75;63.47
61010;BME280;46897;55.340;86.082;2023-03-13T08:37:47;102215.81;;;3.07;66.31
61010;BME280;46897;55.340;86.082;2023-03-13T08:40:17;102207.63;;;3.35;65.27
61010;BME280;46897;55.340;86.082;2023-03-13T08:42:46;102192.81;;;3.38;63.41
61010;BME280;46897;55.340;86.082;2023-03-13T08:45:16;102206.94;;;3.47;62.58
61010;BME280;46897;55.340;86.082;2023-03-13T08:47:45;102186.88;;;3.46;63.29
61010;BME280;46897;55.340;86.082;2023-03-13T08:50:16;102208.44;;;3.85;64.07
61010;BME280;46897;55.340;86.082;2023-03-13T08:52:45;102206.38;;;4.22;64.39
61010;BME280;46897;55.340;86.082;2023-03-13T08:55:15;102212.13;;;4.60;65.14
61010;BME280;46897;55.340;86.082;2023-03-13T08:57:44;102200.00;;;4.73;63.92
61010;BME280;46897;55.340;86.082;2023-03-13T09:00:14;102201.72;;;4.68;63.95
61010;BME280;46897;55.340;86.082;2023-03-13T09:02:45;102203.38;;;4.60;64.79
61010;BME280;46897;55.340;86.082;2023-03-13T09:05:16;102183.19;;;4.54;64.63
61010;BME280;46897;55.340;86.082;2023-03-13T09:07:46;102159.72;;;4.66;65.02
61010;BME280;46897;55.340;86.082;2023-03-13T09:10:15;102111.66;;;4.69;64.62
61010;BME280;46897;55.340;86.082;2023-03-13T09:12:44;102164.06;;;5.56;64.46
61010;BME280;46897;55.340;86.082;2023-03-13T09:15:14;102190.75;;;6.08;63.05
61010;BME280;46897;55.340;86.082;2023-03-13T09:17:44;102178.47;;;6.03;63.75
61010;BME280;46897;55.340;86.082;2023-03-13T09:20:13;102194.25;;;6.03;62.75
61010;BME280;46897;55.340;86.082;2023-03-13T09:22:44;102117.56;;;5.40;61.39
61010;BME280;46897;55.340;86.082;2023-03-13T09:25:13;102149.16;;;5.52;63.41
61010;BME280;46897;55.340;86.082;2023-03-13T09:27:42;102199.16;;;5.61;62.26
61010;BME280;46897;55.340;86.082;2023-03-13T09:30:12;102212.06;;;5.37;63.79
61010;BME280;46897;55.340;86.082;2023-03-13T09:32:41;102142.38;;;4.81;64.10
61010;BME280;46897;55.340;86.082;2023-03-13T09:35:11;102170.53;;;4.92;63.92
61010;BME280;46897;55.340;86.082;2023-03-13T09:37:40;102179.28;;;4.95;62.20
61010;BME280;46897;55.340;86.082;2023-03-13T09:40:13;102078.94;;;4.34;62.90
61010;BME280;46897;55.340;86.082;2023-03-13T09:42:46;102147.53;;;4.73;62.36
61010;BME280;46897;55.340;86.082;2023-03-13T09:45:22;102065.22;;;4.59;61.14
61010;BME280;46897;55.340;86.082;2023-03-13T09:48:00;102116.34;;;5.01;60.38
61010;BME280;46897;55.340;86.082;2023-03-13T09:50:33;102067.50;;;5.18;59.38
61010;BME280;46897;55.340;86.082;2023-03-13T09:55:51;102103.78;;;5.76;57.99
61010;BME280;46897;55.340;86.082;2023-03-13T09:58:22;102059.75;;;5.35;59.29
61010;BME280;46897;55.340;86.082;2023-03-13T10:00:55;102172.53;;;6.45;59.72
61010;BME280;46897;55.340;86.082;2023-03-13T10:03:27;102141.94;;;6.83;58.60
61010;BME280;46897;55.340;86.082;2023-03-13T10:06:00;102153.41;;;7.54;58.87
61010;BME280;46897;55.340;86.082;2023-03-13T10:08:31;102158.63;;;8.10;58.65
61010;BME280;46897;55.340;86.082;2023-03-13T10:11:03;102160.25;;;8.52;57.07
61010;BME280;46897;55.340;86.082;2023-03-13T10:13:40;102146.03;;;8.76;58.40
61010;BME280;46897;55.340;86.082;2023-03-13T10:16:13;102157.22;;;9.18;56.98
61010;BME280;46897;55.340;86.082;2023-03-13T10:18:48;102153.19;;;9.78;57.11
61010;BME280;46897;55.340;86.082;2023-03-13T10:21:22;102144.34;;;10.56;56.96
61010;BME280;46897;55.340;86.082;2023-03-13T10:23:58;102137.75;;;10.88;56.18
61010;BME280;46897;55.340;86.082;2023-03-13T10:26:34;102150.06;;;10.89;56.20
61010;BME280;46897;55.340;86.082;2023-03-13T10:29:18;102148.78;;;10.54;55.22
61010;BME280;46897;55.340;86.082;2023-03-13T10:31:54;102145.78;;;10.11;56.27
61010;BME280;46897;55.340;86.082;2023-03-13T10:34:30;102134.19;;;10.19;56.55
61010;BME280;46897;55.340;86.082;2023-03-13T10:37:14;102112.94;;;10.30;56.88
61010;BME280;46897;55.340;86.082;2023-03-13T10:39:43;102127.94;;;10.28;56.71
61010;BME280;46897;55.340;86.082;2023-03-13T10:42:20;102134.44;;;9.98;56.71
61010;BME280;46897;55.340;86.082;2023-03-13T10:44:56;102142.81;;;9.53;57.27
61010;BME280;46897;55.340;86.082;2023-03-13T10:47:26;102141.31;;;9.24;56.37
61010;BME280;46897;55.340;86.082;2023-03-13T10:50:01;102129.63;;;9.50;56.52
61010;BME280;46897;55.340;86.082;2023-03-13T10:52:35;102134.44;;;9.96;55.82
61010;BME280;46897;55.340;86.082;2023-03-13T10:55:10;102135.38;;;9.95;55.43
61010;BME280;46897;55.340;86.082;2023-03-13T10:57:51;102131.47;;;9.43;55.15
61010;BME280;46897;55.340;86.082;2023-03-13T11:00:32;102132.31;;;9.44;55.66
61010;BME280;46897;55.340;86.082;2023-03-13T11:03:13;102121.81;;;9.41;55.59
61010;BME280;46897;55.340;86.082;2023-03-13T11:05:54;102130.72;;;9.28;55.30
61010;BME280;46897;55.340;86.082;2023-03-13T11:08:25;102136.28;;;8.84;55.39
61010;BME280;46897;55.340;86.082;2023-03-13T11:10:59;102132.16;;;8.26;55.82
61010;BME280;46897;55.340;86.082;2023-03-13T11:13:34;102130.56;;;7.64;56.53
61010;BME280;46897;55.340;86.082;2023-03-13T11:16:18;102133.16;;;6.85;57.58
61010;BME280;46897;55.340;86.082;2023-03-13T11:19:26;102131.91;;;5.91;57.47
61010;BME280;46897;55.340;86.082;2023-03-13T11:22:06;102129.75;;;5.35;58.56
61010;BME280;46897;55.340;86.082;2023-03-13T11:24:43;102139.91;;;4.96;59.12
61010;BME280;46897;55.340;86.082;2023-03-13T11:27:21;102107.13;;;4.52;58.68
61010;BME280;46897;55.340;86.082;2023-03-13T11:30:02;102131.53;;;4.47;58.90
61010;BME280;46897;55.340;86.082;2023-03-13T11:32:39;102130.28;;;4.16;58.16
61010;BME280;46897;55.340;86.082;2023-03-13T11:35:20;102128.34;;;4.02;58.94
61010;BME280;46897;55.340;86.082;2023-03-13T11:37:54;102135.94;;;3.84;59.26
61010;BME280;46897;55.340;86.082;2023-03-13T11:40:28;102135.78;;;3.74;59.27
61010;BME280;46897;55.340;86.082;2023-03-13T11:43:13;102120.91;;;3.70;59.79
61010;BME280;46897;55.340;86.082;2023-03-13T11:46:04;102119.84;;;3.59;59.55
61010;BME280;46897;55.340;86.082;2023-03-13T11:49:04;102129.22;;;3.43;59.46
61010;BME280;46897;55.340;86.082;2023-03-13T11:51:48;102129.47;;;3.07;59.61
61010;BME280;46897;55.340;86.082;2023-03-13T11:57:32;102111.25;;;2.19;60.30
61010;BME280;46897;55.340;86.082;2023-03-13T12:00:17;102129.22;;;2.03;60.83
61010;BME280;46897;55.340;86.082;2023-03-13T12:02:55;102105.88;;;1.71;61.25
61010;BME280;46897;55.340;86.082;2023-03-13T12:05:25;102088.69;;;1.42;61.09
61010;BME280;46897;55.340;86.082;2023-03-13T12:08:00;102105.16;;;1.41;61.66
61010;BME280;46897;55.340;86.082;2023-03-13T12:10:33;102119.00;;;1.36;61.99
61010;BME280;46897;55.340;86.082;2023-03-13T12:13:11;102117.00;;;1.26;62.29
61010;BME280;46897;55.340;86.082;2023-03-13T12:15:45;102106.25;;;1.12;62.70
61010;BME280;46897;55.340;86.082;2023-03-13T12:18:21;102098.03;;;0.97;62.59
61010;BME280;46897;55.340;86.082;2023-03-13T12:20:55;102083.69;;;0.81;62.65
61010;BME280;46897;55.340;86.082;2023-03-13T12:23:33;102085.84;;;0.63;62.71
61010;BME280;46897;55.340;86.082;2023-03-13T12:26:05;102123.25;;;0.65;63.20
61010;BME280;46897;55.340;86.082;2023-03-13T12:28:42;102107.91;;;0.44;63.18
61010;BME280;46897;55.340;86.082;2023-03-13T12:31:20;102115.44;;;0.33;63.29
61010;BME280;46897;55.340;86.082;2023-03-13T12:33:59;102103.38;;;0.06;63.33
61010;BME280;46897;55.340;86.082;2023-03-13T12:36:37;102114.22;;;-0.09;63.43
61010;BME280;46897;55.340;86.082;2023-03-13T12:39:21;102102.22;;;-0.32;63.89
61010;BME280;46897;55.340;86.082;2023-03-13T12:42:06;102090.31;;;-0.53;64.05
61010;BME280;46897;55.340;86.082;2023-03-13T12:44:38;102112.84;;;-0.53;64.29
61010;BME280;46897;55.340;86.082;2023-03-13T12:47:13;102124.75;;;-0.60;64.36
61010;BME280;46897;55.340;86.082;2023-03-13T12:50:15;102120.94;;;-0.71;64.40
61010;BME280;46897;55.340;86.082;2023-03-13T12:53:02;102124.00;;;-0.83;64.56
61010;BME280;46897;55.340;86.082;2023-03-13T12:58:45;102084.56;;;-1.23;64.90
61010;BME280;46897;55.340;86.082;2023-03-13T13:01:25;102085.09;;;-1.33;65.22
61010;BME280;46897;55.340;86.082;2023-03-13T13:03:59;102115.75;;;-1.23;65.17
61010;BME280;46897;55.340;86.082;2023-03-13T13:06:58;102102.34;;;-1.35;65.15
61010;BME280;46897;55.340;86.082;2023-03-13T13:09:30;102087.16;;;-1.48;65.37
61010;BME280;46897;55.340;86.082;2023-03-13T13:12:01;102108.97;;;-1.43;65.34
61010;BME280;46897;55.340;86.082;2023-03-13T13:17:53;102110.34;;;-1.53;65.66
61010;BME280;46897;55.340;86.082;2023-03-13T13:20:34;102114.66;;;-1.53;65.56
61010;BME280;46897;55.340;86.082;2023-03-13T13:23:34;102118.06;;;-1.56;65.73
61010;BME280;46897;55.340;86.082;2023-03-13T13:29:52;102109.69;;;-1.71;65.81
61010;BME280;46897;55.340;86.082;2023-03-13T13:32:33;102117.50;;;-1.71;66.00
61010;BME280;46897;55.340;86.082;2023-03-13T13:35:05;102105.94;;;-1.80;65.99
61010;BME280;46897;55.340;86.082;2023-03-13T13:37:34;102106.59;;;-1.85;65.85
61010;BME280;46897;55.340;86.082;2023-03-13T13:40:21;102113.69;;;-1.81;66.08
61010;BME280;46897;55.340;86.082;2023-03-13T13:42:52;102115.28;;;-1.85;66.25
61010;BME280;46897;55.340;86.082;2023-03-13T13:45:30;102096.41;;;-2.03;66.18
61010;BME280;46897;55.340;86.082;2023-03-13T13:48:25;102121.91;;;-1.93;66.19
61010;BME280;46897;55.340;86.082;2023-03-13T13:51:31;102119.09;;;-1.98;66.20
61010;BME280;46897;55.340;86.082;2023-03-13T13:54:02;102107.56;;;-2.06;66.24
61010;BME280;46897;55.340;86.082;2023-03-13T13:56:44;102103.81;;;-2.14;66.34
61010;BME280;46897;55.340;86.082;2023-03-13T13:59:32;102122.13;;;-2.09;66.23
61010;BME280;46897;55.340;86.082;2023-03-13T14:02:19;102113.94;;;-2.20;66.25
61010;BME280;46897;55.340;86.082;2023-03-13T14:04:58;102105.91;;;-2.26;66.33
61010;BME280;46897;55.340;86.082;2023-03-13T14:07:33;102138.88;;;-2.24;66.19
61010;BME280;46897;55.340;86.082;2023-03-13T14:10:18;102110.03;;;-2.31;66.36
61010;BME280;46897;55.340;86.082;2023-03-13T14:12:56;102122.25;;;-2.29;66.39
61010;BME280;46897;55.340;86.082;2023-03-13T14:15:27;102123.72;;;-2.35;66.33
61010;BME280;46897;55.340;86.082;2023-03-13T14:17:57;102112.09;;;-2.45;66.34
61010;BME280;46897;55.340;86.082;2023-03-13T14:20:30;102107.72;;;-2.46;66.26
61010;BME280;46897;55.340;86.082;2023-03-13T14:23:02;102121.72;;;-2.43;66.38
61010;BME280;46897;55.340;86.082;2023-03-13T14:25:44;102112.84;;;-2.48;66.27
61010;BME280;46897;55.340;86.082;2023-03-13T14:28:20;102111.81;;;-2.53;66.33
61010;BME280;46897;55.340;86.082;2023-03-13T14:30:52;102109.84;;;-2.59;66.63
61010;BME280;46897;55.340;86.082;2023-03-13T14:33:22;102109.56;;;-2.65;66.31
61010;BME280;46897;55.340;86.082;2023-03-13T14:35:51;102098.09;;;-2.71;66.42
61010;BME280;46897;55.340;86.082;2023-03-13T14:38:23;102099.09;;;-2.68;66.47
61010;BME280;46897;55.340;86.082;2023-03-13T14:40:53;102092.03;;;-2.72;66.35
61010;BME280;46897;55.340;86.082;2023-03-13T14:43:30;102088.22;;;-2.80;66.51
61010;BME280;46897;55.340;86.082;2023-03-13T14:46:10;102062.44;;;-2.98;66.79
61010;BME280;46897;55.340;86.082;2023-03-13T14:48:41;102067.78;;;-2.95;66.96
61010;BME280;46897;55.340;86.082;2023-03-13T14:51:16;102090.47;;;-2.89;66.58
61010;BME280;46897;55.340;86.082;2023-03-13T14:53:55;102084.13;;;-2.96;66.40
61010;BME280;46897;55.340;86.082;2023-03-13T14:56:33;102078.06;;;-2.97;66.67
61010;BME280;46897;55.340;86.082;2023-03-13T14:59:13;102062.03;;;-3.09;66.82
61010;BME280;46897;55.340;86.082;2023-03-13T15:01:44;102070.03;;;-3.03;66.55
61010;BME280;46897;55.340;86.082;2023-03-13T15:04:13;102090.06;;;-2.99;66.52
61010;BME280;46897;55.340;86.082;2023-03-13T15:06:42;102067.88;;;-3.13;66.26
61010;BME280;46897;55.340;86.082;2023-03-13T15:09:19;102081.22;;;-3.04;66.29
61010;BME280;46897;55.340;86.082;2023-03-13T15:11:57;102082.75;;;-3.09;66.46
61010;BME280;46897;55.340;86.082;2023-03-13T15:14:39;102071.06;;;-3.20;66.49
61010;BME280;46897;55.340;86.082;2023-03-13T15:17:15;102009.88;;;-3.59;66.40
61010;BME280;46897;55.340;86.082;2023-03-13T15:19:50;102077.88;;;-3.22;66.56
61010;BME280;46897;55.340;86.082;2023-03-13T15:22:24;102067.88;;;-3.34;66.37
61010;BME280;46897;55.340;86.082;2023-03-13T15:24:55;102082.53;;;-3.34;66.85
61010;BME280;46897;55.340;86.082;2023-03-13T15:27:34;102057.06;;;-3.45;66.58
61010;BME280;46897;55.340;86.082;2023-03-13T15:30:06;102090.44;;;-3.31;66.63
61010;BME280;46897;55.340;86.082;2023-03-13T15:32:37;102080.63;;;-3.39;66.69
61010;BME280;46897;55.340;86.082;2023-03-13T15:35:22;102085.81;;;-3.39;66.51
61010;BME280;46897;55.340;86.082;2023-03-13T15:37:51;102079.69;;;-3.41;66.84
61010;BME280;46897;55.340;86.082;2023-03-13T15:40:21;102071.56;;;-3.48;66.59
61010;BME280;46897;55.340;86.082;2023-03-13T15:42:52;102089.22;;;-3.40;66.56
61010;BME280;46897;55.340;86.082;2023-03-13T15:45:23;102072.34;;;-3.51;66.70
61010;BME280;46897;55.340;86.082;2023-03-13T15:47:57;102092.44;;;-3.45;66.88
61010;BME280;46897;55.340;86.082;2023-03-13T15:50:29;102060.31;;;-3.70;66.56
61010;BME280;46897;55.340;86.082;2023-03-13T15:53:09;102097.28;;;-3.53;67.06
61010;BME280;46897;55.340;86.082;2023-03-13T15:55:39;102085.13;;;-3.54;67.16
61010;BME280;46897;55.340;86.082;2023-03-13T15:58:10;102079.56;;;-3.63;66.79
61010;BME280;46897;55.340;86.082;2023-03-13T16:00:41;102088.56;;;-3.55;66.88
61010;BME280;46897;55.340;86.082;2023-03-13T16:03:15;102085.13;;;-3.54;66.74
61010;BME280;46897;55.340;86.082;2023-03-13T16:05:46;102078.91;;;-3.59;66.88
61010;BME280;46897;55.340;86.082;2023-03-13T16:08:17;102080.72;;;-3.57;66.78
61010;BME280;46897;55.340;86.082;2023-03-13T16:11:01;102085.91;;;-3.57;66.98
61010;BME280;46897;55.340;86.082;2023-03-13T16:13:30;102076.31;;;-3.59;66.79
61010;BME280;46897;55.340;86.082;2023-03-13T16:16:01;102034.56;;;-3.86;66.58
61010;BME280;46897;55.340;86.082;2023-03-13T16:18:30;102073.72;;;-3.59;66.85
61010;BME280;46897;55.340;86.082;2023-03-13T16:21:00;102066.75;;;-3.60;66.54
61010;BME280;46897;55.340;86.082;2023-03-13T16:23:29;102057.97;;;-3.64;66.82
61010;BME280;46897;55.340;86.082;2023-03-13T16:25:58;102058.03;;;-3.62;66.58
61010;BME280;46897;55.340;86.082;2023-03-13T16:28:27;102065.97;;;-3.59;66.75
61010;BME280;46897;55.340;86.082;2023-03-13T16:30:56;102067.72;;;-3.58;66.79
61010;BME280;46897;55.340;86.082;2023-03-13T16:33:27;102060.63;;;-3.62;66.33
61010;BME280;46897;55.340;86.082;2023-03-13T16:35:56;102050.91;;;-3.68;66.60
61010;BME280;46897;55.340;86.082;2023-03-13T16:38:26;102052.72;;;-3.65;66.55
61010;BME280;46897;55.340;86.082;2023-03-13T16:40:55;102054.38;;;-3.67;66.77
61010;BME280;46897;55.340;86.082;2023-03-13T16:43:24;102051.78;;;-3.67;66.68
61010;BME280;46897;55.340;86.082;2023-03-13T16:45:53;102045.66;;;-3.69;66.71
61010;BME280;46897;55.340;86.082;2023-03-13T16:48:23;102050.97;;;-3.66;66.47
61010;BME280;46897;55.340;86.082;2023-03-13T16:50:53;102050.03;;;-3.68;66.39
61010;BME280;46897;55.340;86.082;2023-03-13T16:53:22;102054.78;;;-3.78;66.24
61010;BME280;46897;55.340;86.082;2023-03-13T16:55:52;102055.66;;;-3.77;66.40
61010;BME280;46897;55.340;86.082;2023-03-13T16:58:22;102044.03;;;-3.87;66.84
61010;BME280;46897;55.340;86.082;2023-03-13T17:00:51;102033.34;;;-3.95;66.94
61010;BME280;46897;55.340;86.082;2023-03-13T17:03:32;102053.50;;;-3.87;66.40
61010;BME280;46897;55.340;86.082;2023-03-13T17:06:03;102051.72;;;-3.88;66.50
61010;BME280;46897;55.340;86.082;2023-03-13T17:08:33;102060.50;;;-3.85;66.39
61010;BME280;46897;55.340;86.082;2023-03-13T17:11:02;102064.72;;;-3.87;66.40
61010;BME280;46897;55.340;86.082;2023-03-13T17:13:31;102061.13;;;-3.90;66.85
61010;BME280;46897;55.340;86.082;2023-03-13T17:16:00;102041.38;;;-4.08;66.59
61010;BME280;46897;55.340;86.082;2023-03-13T17:18:29;102056.44;;;-3.99;66.91
61010;BME280;46897;55.340;86.082;2023-03-13T17:20:59;102024.47;;;-4.19;66.98
61010;BME280;46897;55.340;86.082;2023-03-13T17:23:29;102049.00;;;-4.11;67.15
61010;BME280;46897;55.340;86.082;2023-03-13T17:25:59;102056.78;;;-4.11;67.27
61010;BME280;46897;55.340;86.082;2023-03-13T17:28:30;102051.44;;;-4.14;67.17
61010;BME280;46897;55.340;86.082;2023-03-13T17:30:59;102029.19;;;-4.30;67.53
61010;BME280;46897;55.340;86.082;2023-03-13T17:33:28;102042.25;;;-4.27;67.52
61010;BME280;46897;55.340;86.082;2023-03-13T17:35:57;102043.88;;;-4.29;67.08
61010;BME280;46897;55.340;86.082;2023-03-13T17:38:26;102042.91;;;-4.31;67.43
61010;BME280;46897;55.340;86.082;2023-03-13T17:40:57;102049.03;;;-4.29;67.27
61010;BME280;46897;55.340;86.082;2023-03-13T17:43:26;102050.47;;;-4.36;67.43
61010;BME280;46897;55.340;86.082;2023-03-13T17:45:55;102051.44;;;-4.33;67.59
61010;BME280;46897;55.340;86.082;2023-03-13T17:48:25;102044.06;;;-4.44;67.17
61010;BME280;46897;55.340;86.082;2023-03-13T17:50:54;102051.00;;;-4.43;67.40
61010;BME280;46897;55.340;86.082;2023-03-13T17:53:23;102054.41;;;-4.44;67.35
61010;BME280;46897;55.340;86.082;2023-03-13T17:55:52;102060.19;;;-4.49;67.05
61010;BME280;46897;55.340;86.082;2023-03-13T17:58:23;102052.41;;;-4.49;67.44
61010;BME280;46897;55.340;86.082;2023-03-13T18:00:52;102054.19;;;-4.48;67.44
61010;BME280;46897;55.340;86.082;2023-03-13T18:03:21;102034.56;;;-4.63;67.56
61010;BME280;46897;55.340;86.082;2023-03-13T18:05:51;102055.59;;;-4.55;67.55
61010;BME280;46897;55.340;86.082;2023-03-13T18:08:22;102055.53;;;-4.57;67.27
61010;BME280;46897;55.340;86.082;2023-03-13T18:10:52;102058.09;;;-4.57;67.38
61010;BME280;46897;55.340;86.082;2023-03-13T18:13:22;102054.56;;;-4.59;67.59
61010;BME280;46897;55.340;86.082;2023-03-13T18:15:51;102056.34;;;-4.58;67.59
61010;BME280;46897;55.340;86.082;2023-03-13T18:18:21;102031.41;;;-4.75;67.32
61010;BME280;46897;55.340;86.082;2023-03-13T18:20:50;102058.19;;;-4.55;67.37
61010;BME280;46897;55.340;86.082;2023-03-13T18:23:20;102054.72;;;-4.56;67.48
61010;BME280;46897;55.340;86.082;2023-03-13T18:25:49;102008.81;;;-4.79;67.32
61010;BME280;46897;55.340;86.082;2023-03-13T18:28:19;102045.06;;;-4.60;67.54
61010;BME280;46897;55.340;86.082;2023-03-13T18:30:49;102045.06;;;-4.60;67.47
61010;BME280;46897;55.340;86.082;2023-03-13T18:33:18;102046.06;;;-4.56;67.22
61010;BME280;46897;55.340;86.082;2023-03-13T18:35:48;102047.69;;;-4.58;67.46
61010;BME280;46897;55.340;86.082;2023-03-13T18:38:17;102039.06;;;-4.59;67.46
61010;BME280;46897;55.340;86.082;2023-03-13T18:40:46;102051.09;;;-4.59;67.38
61010;BME280;46897;55.340;86.082;2023-03-13T18:43:15;102039.66;;;-4.64;67.47
61010;BME280;46897;55.340;86.082;2023-03-13T18:45:44;102045.84;;;-4.61;67.71
61010;BME280;46897;55.340;86.082;2023-03-13T18:48:15;102047.66;;;-4.60;67.54
61010;BME280;46897;55.340;86.082;2023-03-13T18:50:44;102034.50;;;-4.64;67.29
61010;BME280;46897;55.340;86.082;2023-03-13T18:53:13;102026.47;;;-4.70;67.31
61010;BME280;46897;55.340;86.082;2023-03-13T18:55:42;102028.00;;;-4.74;67.70
61010;BME280;46897;55.340;86.082;2023-03-13T18:58:11;102042.16;;;-4.66;67.42
61010;BME280;46897;55.340;86.082;2023-03-13T19:00:41;102035.97;;;-4.69;67.74
61010;BME280;46897;55.340;86.082;2023-03-13T19:03:10;102031.81;;;-4.66;67.49
61010;BME280;46897;55.340;86.082;2023-03-13T19:05:41;102029.41;;;-4.63;67.78
61010;BME280;46897;55.340;86.082;2023-03-13T19:08:10;102031.22;;;-4.60;67.93
61010;BME280;46897;55.340;86.082;2023-03-13T19:10:40;102033.13;;;-4.56;67.67
61010;BME280;46897;55.340;86.082;2023-03-13T19:13:09;102019.34;;;-4.57;67.51
61010;BME280;46897;55.340;86.082;2023-03-13T19:15:41;101999.06;;;-4.67;67.66
61010;BME280;46897;55.340;86.082;2023-03-13T19:18:11;102010.91;;;-4.52;67.57
61010;BME280;46897;55.340;86.082;2023-03-13T19:20:42;101930.47;;;-4.98;67.57
61010;BME280;46897;55.340;86.082;2023-03-13T19:23:11;102029.28;;;-4.46;67.52
61010;BME280;46897;55.340;86.082;2023-03-13T19:25:40;102006.31;;;-4.40;67.57
61010;BME280;46897;55.340;86.082;2023-03-13T19:28:10;101919.06;;;-4.83;67.30
61010;BME280;46897;55.340;86.082;2023-03-13T19:30:39;101872.94;;;-5.13;67.59
61010;BME280;46897;55.340;86.082;2023-03-13T19:33:10;101978.22;;;-4.32;67.42
61010;BME280;46897;55.340;86.082;2023-03-13T19:35:40;101909.41;;;-4.68;67.39
61010;BME280;46897;55.340;86.082;2023-03-13T19:38:11;101947.25;;;-4.50;67.15
61010;BME280;46897;55.340;86.082;2023-03-13T19:40:40;101963.78;;;-4.27;67.26
61010;BME280;46897;55.340;86.082;2023-03-13T19:43:09;101942.66;;;-4.38;67.25
61010;BME280;46897;55.340;86.082;2023-03-13T19:45:39;101861.53;;;-4.79;67.24
61010;BME280;46897;55.340;86.082;2023-03-13T19:48:08;101918.69;;;-4.53;66.91
61010;BME280;46897;55.340;86.082;2023-03-13T19:50:38;101962.28;;;-4.22;67.18
61010;BME280;46897;55.340;86.082;2023-03-13T19:53:07;102011.63;;;-3.98;66.95
61010;BME280;46897;55.340;86.082;2023-03-13T19:55:38;102023.22;;;-3.90;67.05
61010;BME280;46897;55.340;86.082;2023-03-13T19:58:07;101975.56;;;-4.15;67.21
61010;BME280;46897;55.340;86.082;2023-03-13T20:00:37;101959.22;;;-4.33;67.51
61010;BME280;46897;55.340;86.082;2023-03-13T20:03:07;102007.94;;;-3.84;67.60
61010;BME280;46897;55.340;86.082;2023-03-13T20:05:36;101962.09;;;-4.07;67.68
61010;BME280;46897;55.340;86.082;2023-03-13T20:08:05;101927.78;;;-4.03;67.56
61010;BME280;46897;55.340;86.082;2023-03-13T20:10:35;101935.59;;;-4.02;67.41
61010;BME280;46897;55.340;86.082;2023-03-13T20:13:05;102017.66;;;-3.38;67.42
61010;BME280;46897;55.340;86.082;2023-03-13T20:15:35;101992.25;;;-3.46;67.44
61010;BME280;46897;55.340;86.082;2023-03-13T20:18:04;101911.13;;;-3.89;67.27
61010;BME280;46897;55.340;86.082;2023-03-13T20:20:34;101997.50;;;-3.24;67.52
61010;BME280;46897;55.340;86.082;2023-03-13T20:23:03;101989.56;;;-3.28;67.40
61010;BME280;46897;55.340;86.082;2023-03-13T20:25:32;101927.69;;;-3.64;67.52